Terminal Aerodrome Forecast
Issued by NWS Wichita, KS

Home | Current Version | Previous Version | Text Only | Print | Product List | Glossary Off
Versions: 1 2 3 4 5 6 7 8 9 10 11 12 13 14 15 16 17

953
FTUS43 KICT 250134 AAA
TAFICT
TAF AMD
KICT 250134Z 2502/2524 VRB05KT P6SM -SHRA VCTS SCT050CB BKN100
     FM250800 24007KT P6SM VCSH SCT015 BKN040
      TEMPO 2508/2511 TSRA SCT008 BKN015CB
     FM251200 35020G30KT P6SM BKN015
     FM251400 35018G28KT P6SM SKC=

USA.gov is the U.S. government's official web portal to all federal, state and local government web resources and services.